Time;durP1;ratioP1;P1;durP2;ratioP2;P2;SDS_P1;SDS_P2;PMS_P1;PMS_P2;Temp;Humidity;BMP_temperature;BMP_pressure;BME280_temperature;BME280_humidity;BME280_pressure;Samples;Min_cycle;Max_cycle;Signal;HPM_P1;HPM_P2
2020/12/24 00:01:26;;;;;;;3.33;2.35;;;13.20;99.90;;;;;;5011968;28;20483;-69
2020/12/24 00:03:52;;;;;;;3.88;2.28;;;13.30;99.90;;;;;;5011780;28;20049;-69
2020/12/24 00:06:19;;;;;;;4.60;2.42;;;13.30;99.90;;;;;;5011557;28;20164;-69
2020/12/24 00:08:45;;;;;;;6.72;2.25;;;13.20;99.90;;;;;;5013293;28;20030;-69
2020/12/24 00:11:10;;;;;;;7.22;2.45;;;13.20;99.90;;;;;;5011699;28;20049;-69
2020/12/24 00:13:36;;;;;;;8.63;2.88;;;13.20;99.90;;;;;;5011548;28;20045;-70
2020/12/24 00:16:03;;;;;;;4.95;2.38;;;13.20;99.90;;;;;;5011636;28;20048;-71
2020/12/24 00:18:29;;;;;;;5.05;2.30;;;13.20;99.90;;;;;;5011505;28;20026;-69
2020/12/24 00:20:55;;;;;;;3.45;1.98;;;13.10;99.90;;;;;;5013232;28;20109;-70
2020/12/24 00:23:20;;;;;;;6.65;2.60;;;13.10;99.90;;;;;;5012074;28;20045;-69
2020/12/24 00:25:46;;;;;;;8.27;2.28;;;13.20;99.90;;;;;;5011982;28;20030;-70
2020/12/24 00:28:12;;;;;;;4.80;2.20;;;13.10;99.90;;;;;;5011634;28;20080;-70
2020/12/24 00:30:41;;;;;;;4.18;1.95;;;13.10;99.90;;;;;;5011718;28;20034;-70
2020/12/24 00:33:08;;;;;;;3.58;2.08;;;13.10;99.90;;;;;;5011491;28;20018;-69
2020/12/24 00:35:34;;;;;;;4.80;2.30;;;13.10;99.90;;;;;;5013076;28;20101;-71
2020/12/24 00:38:00;;;;;;;6.78;1.80;;;13.10;99.90;;;;;;5010189;28;20116;-69
2020/12/24 00:40:27;;;;;;;2.45;1.70;;;13.10;99.90;;;;;;5014686;28;20048;-68
2020/12/24 00:42:52;;;;;;;2.88;1.83;;;13.10;99.90;;;;;;5013989;28;20216;-69
2020/12/24 00:45:18;;;;;;;3.55;1.85;;;13.00;99.90;;;;;;5014825;28;20101;-69
2020/12/24 00:47:44;;;;;;;4.88;2.00;;;13.00;99.90;;;;;;5016838;28;20049;-70
2020/12/24 00:50:09;;;;;;;5.55;1.75;;;13.00;99.90;;;;;;5015423;28;20365;-69
2020/12/24 00:52:35;;;;;;;2.80;1.30;;;13.00;99.90;;;;;;5015164;28;20029;-69
2020/12/24 00:55:01;;;;;;;4.20;1.50;;;13.00;99.90;;;;;;5013937;28;20419;-70
2020/12/24 00:57:26;;;;;;;2.63;1.25;;;12.90;99.90;;;;;;5014919;28;20037;-70
2020/12/24 00:59:52;;;;;;;5.70;1.70;;;12.90;99.90;;;;;;5015363;28;20467;-69
2020/12/24 01:02:17;;;;;;;4.18;1.67;;;12.90;99.90;;;;;;5014398;28;20034;-70
2020/12/24 01:04:43;;;;;;;3.70;1.45;;;12.80;99.90;;;;;;5015002;28;20377;-69
2020/12/24 01:07:09;;;;;;;6.38;1.58;;;12.80;99.90;;;;;;5014870;28;20049;-71
2020/12/24 01:09:35;;;;;;;4.60;1.67;;;12.80;99.90;;;;;;5014645;28;20030;-70
2020/12/24 01:12:00;;;;;;;4.45;1.60;;;12.70;99.90;;;;;;5016449;28;20037;-70
2020/12/24 01:14:26;;;;;;;6.40;1.50;;;12.70;99.90;;;;;;5014826;28;20104;-70
2020/12/24 01:16:52;;;;;;;3.30;1.55;;;12.70;99.90;;;;;;5014396;28;20038;-69
2020/12/24 01:19:17;;;;;;;3.75;1.98;;;12.60;99.90;;;;;;5014377;28;20072;-69
2020/12/24 01:21:47;;;;;;;4.70;1.58;;;12.60;99.90;;;;;;5014430;28;20125;-69
2020/12/24 01:24:13;;;;;;;9.88;2.20;;;12.50;99.90;;;;;;5014581;28;20034;-69
2020/12/24 01:26:45;;;;;;;6.45;2.22;;;12.50;99.90;;;;;;5016047;28;20034;-70
2020/12/24 01:29:11;;;;;;;3.25;1.80;;;12.50;99.90;;;;;;5014584;28;20119;-70
2020/12/24 01:31:36;;;;;;;7.63;1.75;;;12.50;99.90;;;;;;5014239;28;20054;-70
2020/12/24 01:34:02;;;;;;;6.07;2.40;;;12.50;99.90;;;;;;5012536;28;20364;-70
2020/12/24 01:36:28;;;;;;;6.43;2.33;;;12.50;99.90;;;;;;5013901;28;20041;-69
2020/12/24 01:38:53;;;;;;;6.47;2.15;;;12.50;99.90;;;;;;5015508;28;20034;-69
2020/12/24 01:41:19;;;;;;;6.88;2.28;;;12.50;99.90;;;;;;5014283;28;20120;-70
2020/12/24 01:43:45;;;;;;;7.28;2.22;;;12.40;99.90;;;;;;5014174;28;20423;-70
2020/12/24 01:46:10;;;;;;;9.77;2.15;;;12.40;99.90;;;;;;5014436;28;20034;-70
2020/12/24 01:48:36;;;;;;;2.58;1.30;;;12.40;99.90;;;;;;5013722;28;20034;-70
2020/12/24 01:51:02;;;;;;;5.28;1.65;;;12.30;99.60;;;;;;5013024;28;20026;-70
2020/12/24 01:53:28;;;;;;;0.90;0.75;;;12.20;99.60;;;;;;5015294;28;20034;-70
2020/12/24 01:55:56;;;;;;;2.22;1.00;;;12.20;99.40;;;;;;5013773;28;20115;-69
2020/12/24 01:58:22;;;;;;;1.50;0.63;;;12.20;99.10;;;;;;5013836;28;20125;-71
2020/12/24 02:00:48;;;;;;;2.85;0.70;;;12.10;98.70;;;;;;5013903;28;20045;-70
2020/12/24 02:03:14;;;;;;;2.38;0.73;;;12.10;98.70;;;;;;5013585;28;20334;-70
2020/12/24 02:05:41;;;;;;;2.88;0.90;;;12.00;98.50;;;;;;5015074;28;20080;-70
2020/12/24 02:08:07;;;;;;;5.72;0.95;;;12.00;98.40;;;;;;5013279;28;20036;-69
2020/12/24 02:10:33;;;;;;;2.17;0.60;;;12.00;98.20;;;;;;5013743;28;20034;-69
2020/12/24 02:12:59;;;;;;;3.42;0.43;;;12.00;98.40;;;;;;5013696;28;20105;-70
2020/12/24 02:15:24;;;;;;;3.63;0.77;;;11.90;98.10;;;;;;5013449;28;20168;-70
2020/12/24 02:17:50;;;;;;;2.17;0.63;;;11.90;98.20;;;;;;5014644;28;20416;-69
2020/12/24 02:20:16;;;;;;;2.53;0.55;;;11.80;98.40;;;;;;5012275;28;20034;-70
2020/12/24 02:22:41;;;;;;;4.97;0.85;;;11.80;98.50;;;;;;5013256;28;20033;-69
2020/12/24 02:25:07;;;;;;;4.32;1.08;;;11.80;98.80;;;;;;5013002;28;20038;-70
2020/12/24 02:27:33;;;;;;;3.08;0.70;;;11.80;98.90;;;;;;5011705;28;20472;-70
2020/12/24 02:30:01;;;;;;;2.60;0.93;;;11.80;99.00;;;;;;5014687;28;20022;-69
2020/12/24 02:32:28;;;;;;;3.38;0.90;;;11.70;99.10;;;;;;5012521;28;20101;-71
2020/12/24 02:34:55;;;;;;;2.63;0.70;;;11.70;99.20;;;;;;5013361;28;20033;-70
2020/12/24 02:37:24;;;;;;;2.40;1.00;;;11.70;99.40;;;;;;5013015;28;20135;-69
2020/12/24 02:39:51;;;;;;;2.38;0.93;;;11.60;99.50;;;;;;5012912;28;20030;-70
2020/12/24 02:42:17;;;;;;;1.75;0.80;;;11.70;99.70;;;;;;5012943;28;20026;-69
2020/12/24 02:44:43;;;;;;;3.78;1.10;;;11.80;99.60;;;;;;5014598;28;20033;-69
2020/12/24 02:47:09;;;;;;;3.58;1.23;;;11.80;99.70;;;;;;5012795;28;20487;-68
2020/12/24 02:49:35;;;;;;;5.47;1.33;;;11.70;99.70;;;;;;5012859;28;20030;-70
2020/12/24 02:52:01;;;;;;;4.53;1.40;;;11.70;99.30;;;;;;5012610;28;20048;-69
2020/12/24 02:54:26;;;;;;;10.35;1.35;;;11.70;99.40;;;;;;5012435;28;20489;-69
2020/12/24 02:56:52;;;;;;;4.70;0.93;;;11.60;99.20;;;;;;5014022;28;20026;-69
2020/12/24 02:59:18;;;;;;;5.32;1.10;;;11.60;99.20;;;;;;5012552;28;20029;-68
2020/12/24 03:01:43;;;;;;;10.35;1.35;;;11.60;99.00;;;;;;5012701;28;20096;-70
2020/12/24 03:04:09;;;;;;;5.85;1.65;;;11.50;98.90;;;;;;5012574;28;20034;-69
2020/12/24 03:06:34;;;;;;;7.45;1.55;;;11.50;98.70;;;;;;5012824;28;20034;-69
2020/12/24 03:09:00;;;;;;;8.50;2.38;;;11.50;98.70;;;;;;5013883;28;20348;-69
2020/12/24 03:11:26;;;;;;;3.60;1.13;;;11.50;98.80;;;;;;5012481;28;20037;-69
2020/12/24 03:13:51;;;;;;;5.32;1.35;;;11.50;99.10;;;;;;5011244;28;20550;-68
2020/12/24 03:16:17;;;;;;;3.65;1.10;;;11.40;98.80;;;;;;5011128;28;20596;-69
2020/12/24 03:18:43;;;;;;;6.63;1.88;;;11.50;99.00;;;;;;5012458;28;20527;-68
2020/12/24 03:21:08;;;;;;;8.18;1.75;;;11.60;98.80;;;;;;5012146;28;20160;-69
2020/12/24 03:23:34;;;;;;;5.70;1.48;;;11.50;98.50;;;;;;5013858;28;20025;-68
2020/12/24 03:26:00;;;;;;;7.40;1.75;;;11.50;98.60;;;;;;5012537;28;20045;-70
2020/12/24 03:28:25;;;;;;;10.25;2.20;;;11.50;98.60;;;;;;5010963;28;20479;-70
2020/12/24 03:30:51;;;;;;;7.78;1.80;;;11.50;98.60;;;;;;5012163;28;20439;-69
2020/12/24 03:33:17;;;;;;;9.90;2.20;;;11.50;98.60;;;;;;5012180;28;20030;-69
2020/12/24 03:35:42;;;;;;;10.80;2.38;;;11.40;98.60;;;;;;5013703;28;20425;-70
2020/12/24 03:38:08;;;;;;;12.98;2.80;;;11.40;98.60;;;;;;5012251;28;20526;-70
2020/12/24 03:40:34;;;;;;;8.80;2.72;;;11.40;98.50;;;;;;5012535;28;20069;-69
2020/12/24 03:42:59;;;;;;;6.38;2.08;;;11.40;98.60;;;;;;5012176;28;20403;-68
2020/12/24 03:45:27;;;;;;;9.98;2.30;;;11.30;98.50;;;;;;5011540;28;20029;-68
2020/12/24 03:47:52;;;;;;;12.32;2.25;;;11.30;98.50;;;;;;5013405;28;20121;-68
2020/12/24 03:50:18;;;;;;;10.45;2.60;;;11.30;98.60;;;;;;5010847;28;20113;-69
2020/12/24 03:52:44;;;;;;;9.57;2.10;;;11.30;98.50;;;;;;5010841;28;20097;-68
2020/12/24 03:55:09;;;;;;;6.43;1.20;;;10.90;98.70;;;;;;5012004;28;20041;-68
2020/12/24 03:57:35;;;;;;;4.82;1.13;;;10.50;98.60;;;;;;5010732;28;20060;-68
2020/12/24 04:00:00;;;;;;;5.03;0.98;;;10.20;99.30;;;;;;5013279;28;20029;-68
2020/12/24 04:02:26;;;;;;;4.28;0.80;;;10.00;99.90;;;;;;5011638;28;20053;-68
2020/12/24 04:04:52;;;;;;;5.20;0.90;;;10.00;99.90;;;;;;5011776;28;20077;-69
2020/12/24 04:07:19;;;;;;;3.17;0.63;;;9.80;99.90;;;;;;5011620;28;20049;-69
2020/12/24 04:09:45;;;;;;;5.80;0.90;;;9.80;99.90;;;;;;5012032;28;20049;-67
2020/12/24 04:12:10;;;;;;;3.70;1.00;;;9.80;99.90;;;;;;5011686;28;20448;-67
2020/12/24 04:14:37;;;;;;;5.13;1.13;;;9.80;99.90;;;;;;5014463;28;20045;-67
2020/12/24 04:17:03;;;;;;;5.35;1.40;;;9.70;99.90;;;;;;5014760;28;20408;-68
2020/12/24 04:19:28;;;;;;;3.50;0.75;;;9.80;99.90;;;;;;5015666;28;20116;-68
2020/12/24 04:21:54;;;;;;;2.67;0.60;;;9.70;99.90;;;;;;5015558;28;20026;-68
2020/12/24 04:24:19;;;;;;;4.40;0.90;;;9.60;99.90;;;;;;5015539;28;20092;-68
2020/12/24 04:26:45;;;;;;;4.68;0.90;;;9.60;99.90;;;;;;5016265;28;20040;-68
2020/12/24 04:29:11;;;;;;;5.10;1.00;;;9.40;99.90;;;;;;5015460;28;20434;-67
2020/12/24 04:31:43;;;;;;;3.97;0.93;;;9.50;99.90;;;;;;5015334;28;20045;-69
2020/12/24 04:34:09;;;;;;;7.55;0.80;;;9.50;99.90;;;;;;5015276;28;20041;-68
2020/12/24 04:36:35;;;;;;;8.73;1.48;;;9.60;99.90;;;;;;5015152;28;20472;-69
2020/12/24 04:39:02;;;;;;;6.75;1.35;;;9.70;99.90;;;;;;5016756;28;20480;-67
2020/12/24 04:41:28;;;;;;;6.65;1.05;;;9.70;99.90;;;;;;5015435;28;20046;-68
2020/12/24 04:43:54;;;;;;;6.25;1.38;;;9.80;99.90;;;;;;5015278;28;20034;-68
2020/12/24 04:46:27;;;;;;;9.52;1.80;;;9.90;99.90;;;;;;5015317;28;20048;-68
2020/12/24 04:48:53;;;;;;;9.25;1.27;;;9.80;99.90;;;;;;5014234;28;20042;-67
2020/12/24 04:51:22;;;;;;;8.25;2.13;;;9.90;99.90;;;;;;5014951;28;20025;-68
2020/12/24 04:53:47;;;;;;;;;;;9.90;99.90;;;;;;5017069;28;20379;-68
2020/12/24 04:56:13;;;;;;;7.13;1.60;;;10.00;99.90;;;;;;5015151;28;19932;-67
2020/12/24 04:58:42;;;;;;;7.13;2.00;;;10.00;99.90;;;;;;5013901;28;20449;-68
2020/12/24 05:01:13;;;;;;;10.38;2.05;;;10.10;99.90;;;;;;5014922;28;20033;-68
2020/12/24 05:03:39;;;;;;;13.95;2.40;;;10.10;99.90;;;;;;5014819;28;20038;-68
2020/12/24 05:06:04;;;;;;;7.20;1.85;;;10.10;99.90;;;;;;5014790;28;20052;-67
2020/12/24 05:08:30;;;;;;;12.82;2.25;;;10.10;99.80;;;;;;5015145;28;20037;-68
2020/12/24 05:11:04;;;;;;;8.73;2.42;;;10.20;99.60;;;;;;5014662;28;20048;-67
2020/12/24 05:13:30;;;;;;;21.58;3.05;;;10.30;99.60;;;;;;5013443;28;20038;-68
2020/12/24 05:15:55;;;;;;;10.60;2.28;;;10.40;99.60;;;;;;5013558;28;20038;-68
2020/12/24 05:18:22;;;;;;;11.13;3.15;;;10.40;99.60;;;;;;5014439;28;20030;-68
2020/12/24 05:20:49;;;;;;;18.17;2.47;;;10.30;99.50;;;;;;5016082;28;20022;-68
2020/12/24 05:23:19;;;;;;;6.07;2.10;;;10.30;99.40;;;;;;5014671;28;20073;-67
2020/12/24 05:25:47;;;;;;;11.00;2.92;;;10.30;99.60;;;;;;5013373;28;20033;-68
2020/12/24 05:28:20;;;;;;;13.35;3.40;;;10.30;99.80;;;;;;5014530;28;20038;-68
2020/12/24 05:30:46;;;;;;;15.10;2.72;;;10.20;99.80;;;;;;5014438;28;20076;-68
2020/12/24 05:33:24;;;;;;;9.00;2.10;;;10.20;99.90;;;;;;5014238;28;20464;-68
2020/12/24 05:35:50;;;;;;;;;;;10.20;99.90;;;;;;5016078;28;20033;-67
2020/12/24 05:38:31;;;;;;;9.07;2.75;;;10.20;99.90;;;;;;5014118;28;20324;-67
2020/12/24 05:40:57;;;;;;;13.05;2.50;;;10.20;99.90;;;;;;5013066;28;20753;-68
2020/12/24 05:43:22;;;;;;;11.38;2.20;;;10.10;99.90;;;;;;5012918;28;20117;-68
2020/12/24 05:45:48;;;;;;;11.80;2.83;;;10.10;99.90;;;;;;5013938;28;20080;-68
2020/12/24 05:48:14;;;;;;;6.85;2.40;;;10.10;99.90;;;;;;5013834;28;20057;-67
2020/12/24 05:50:42;;;;;;;13.40;2.72;;;10.10;99.90;;;;;;5015586;28;20061;-67
2020/12/24 05:53:09;;;;;;;10.90;2.38;;;10.00;99.90;;;;;;5014217;28;20038;-68
2020/12/24 05:55:36;;;;;;;8.90;1.60;;;10.00;99.90;;;;;;5013784;28;20089;-67
2020/12/24 05:58:03;;;;;;;10.95;2.28;;;10.10;99.90;;;;;;5013815;28;20133;-68
2020/12/24 06:00:33;;;;;;;3.90;1.55;;;9.90;99.90;;;;;;5013751;28;20582;-68
2020/12/24 06:03:13;;;;;;;3.97;1.15;;;9.90;99.90;;;;;;5015077;28;20030;-68
2020/12/24 06:06:05;;;;;;;2.50;1.23;;;9.60;99.90;;;;;;5014027;28;20034;-68
2020/12/24 06:08:34;;;;;;;4.38;1.45;;;9.60;99.90;;;;;;5013974;28;20045;-68
2020/12/24 06:11:06;;;;;;;2.53;1.30;;;9.30;99.90;;;;;;5013637;28;20048;-67
2020/12/24 06:13:41;;;;;;;2.30;1.70;;;9.40;99.90;;;;;;5013686;28;20104;-68
2020/12/24 06:16:14;;;;;;;4.65;1.25;;;9.30;99.90;;;;;;5013445;28;20065;-69
2020/12/24 06:18:42;;;;;;;1.85;1.30;;;9.00;99.90;;;;;;5013315;28;20026;-68
2020/12/24 06:21:28;;;;;;;1.65;1.30;;;8.90;99.90;;;;;;5012312;28;20452;-68
2020/12/24 06:23:58;;;;;;;2.17;1.48;;;9.00;99.90;;;;;;5014939;28;20033;-69
2020/12/24 06:26:28;;;;;;;2.05;1.70;;;9.10;99.90;;;;;;5013359;28;20030;-69
2020/12/24 06:28:58;;;;;;;1.70;1.45;;;9.10;99.90;;;;;;5013257;28;20367;-67
2020/12/24 06:31:25;;;;;;;2.45;1.65;;;8.90;99.90;;;;;;5013260;28;20099;-68
2020/12/24 06:33:50;;;;;;;2.35;1.65;;;8.80;99.90;;;;;;5013116;28;20044;-67
2020/12/24 06:36:36;;;;;;;1.65;1.35;;;8.70;99.90;;;;;;5012602;28;20021;-69
2020/12/24 06:39:03;;;;;;;1.33;1.23;;;8.80;99.90;;;;;;5012891;28;20034;-68
2020/12/24 06:41:38;;;;;;;1.17;1.08;;;8.70;99.90;;;;;;5013635;28;20180;-68
2020/12/24 06:44:10;;;;;;;1.30;1.20;;;8.50;99.90;;;;;;5013049;28;20034;-68
2020/12/24 06:46:59;;;;;;;1.52;1.10;;;8.60;99.90;;;;;;5013114;28;20042;-69
2020/12/24 06:49:32;;;;;;;0.90;0.77;;;8.50;99.90;;;;;;5005009;28;20038;-68
2020/12/24 06:51:59;;;;;;;1.48;1.00;;;8.40;99.90;;;;;;5012907;28;20466;-68
2020/12/24 06:54:26;;;;;;;1.10;0.98;;;8.20;99.90;;;;;;5012822;28;20131;-69
2020/12/24 06:57:20;;;;;;;1.63;1.00;;;8.30;99.90;;;;;;5014049;28;20459;-67
2020/12/24 06:59:47;;;;;;;1.15;1.00;;;8.30;99.90;;;;;;5012827;28;20101;-68
2020/12/24 07:02:24;;;;;;;0.82;0.82;;;8.20;99.90;;;;;;5011633;28;20110;-69
2020/12/24 07:04:50;;;;;;;0.90;0.60;;;8.10;99.90;;;;;;5012695;28;20037;-67
2020/12/24 07:07:45;;;;;;;0.60;0.50;;;8.00;99.90;;;;;;5012510;28;20038;-68
2020/12/24 07:10:43;;;;;;;0.20;0.20;;;7.60;99.90;;;;;;5012622;28;20408;-69
2020/12/24 07:13:29;;;;;;;0.80;0.32;;;7.30;99.90;;;;;;5012697;28;20037;-70
2020/12/24 07:15:55;;;;;;;0.50;0.50;;;7.30;99.90;;;;;;5011802;28;20110;-71
2020/12/24 07:18:23;;;;;;;0.30;0.30;;;7.20;99.90;;;;;;5012391;28;20030;-69
2020/12/24 07:20:52;;;;;;;0.45;0.25;;;7.00;99.90;;;;;;5013944;28;20036;-69
2020/12/24 07:23:32;;;;;;;0.35;0.10;;;6.90;99.90;;;;;;5012176;28;20038;-70
2020/12/24 07:25:59;;;;;;;0.40;0.22;;;6.70;99.90;;;;;;5012232;28;20038;-71
2020/12/24 07:28:36;;;;;;;1.33;0.40;;;6.40;99.90;;;;;;5012084;28;20117;-68
2020/12/24 07:31:10;;;;;;;0.30;0.20;;;6.40;99.90;;;;;;5012207;28;20049;-71
2020/12/24 07:33:44;;;;;;;0.20;0.20;;;6.30;99.90;;;;;;5011023;28;20030;-68
2020/12/24 07:36:10;;;;;;;0.17;0.17;;;6.20;99.90;;;;;;5011967;28;20022;-69
2020/12/24 07:38:36;;;;;;;3.10;0.40;;;6.20;99.90;;;;;;5013718;28;20084;-70
2020/12/24 07:41:02;;;;;;;0.70;0.47;;;6.10;99.90;;;;;;5010976;28;20762;-70
2020/12/24 07:43:27;;;;;;;1.85;0.60;;;6.10;99.90;;;;;;5012117;28;20044;-69
2020/12/24 07:45:53;;;;;;;1.25;0.40;;;6.20;99.90;;;;;;5012224;28;20030;-69
2020/12/24 07:48:23;;;;;;;0.40;0.40;;;6.30;99.90;;;;;;5011118;28;20030;-70
2020/12/24 07:50:52;;;;;;;1.10;0.40;;;6.30;99.90;;;;;;5013407;28;20033;-68
2020/12/24 07:53:24;;;;;;;2.90;0.47;;;6.20;99.90;;;;;;5011812;28;20038;-67
2020/12/24 07:55:50;;;;;;;0.40;0.35;;;6.10;99.90;;;;;;5011589;28;20081;-68
2020/12/24 07:58:18;;;;;;;0.85;0.80;;;6.10;99.90;;;;;;5011846;28;20049;-69
2020/12/24 08:00:45;;;;;;;1.30;0.73;;;6.10;99.90;;;;;;5011774;28;20125;-68
2020/12/24 08:03:14;;;;;;;1.25;0.85;;;6.30;99.90;;;;;;5011881;28;20034;-69
2020/12/24 08:05:40;;;;;;;0.60;0.60;;;6.20;99.90;;;;;;5013406;28;20096;-69
2020/12/24 08:08:06;;;;;;;2.28;1.00;;;6.10;99.90;;;;;;5012210;28;20448;-70
2020/12/24 08:10:42;;;;;;;1.08;0.82;;;6.30;99.90;;;;;;5010511;28;20084;-69
2020/12/24 08:13:10;;;;;;;1.40;0.90;;;6.50;99.90;;;;;;5009679;28;20379;-68
2020/12/24 08:15:40;;;;;;;1.13;1.02;;;6.60;99.90;;;;;;5011842;28;20067;-69
2020/12/24 08:18:09;;;;;;;1.17;1.05;;;6.30;99.90;;;;;;5011478;28;20456;-68
2020/12/24 08:20:45;;;;;;;1.63;1.02;;;6.40;99.90;;;;;;5013134;28;20019;-68
2020/12/24 08:23:32;;;;;;;1.83;1.13;;;6.30;99.90;;;;;;5011608;28;20022;-68
2020/12/24 08:25:59;;;;;;;1.38;1.20;;;6.30;99.90;;;;;;5011428;28;20100;-69
2020/12/24 08:28:25;;;;;;;1.08;0.98;;;6.30;99.90;;;;;;5010371;28;20034;-69
2020/12/24 08:30:51;;;;;;;1.00;0.88;;;6.30;99.90;;;;;;5011647;28;20034;-68
2020/12/24 08:33:17;;;;;;;2.08;1.17;;;6.50;99.90;;;;;;5011723;28;20022;-68
2020/12/24 08:35:43;;;;;;;1.00;0.88;;;6.50;99.90;;;;;;5013150;28;20073;-69
2020/12/24 08:38:17;;;;;;;0.70;0.70;;;6.50;99.90;;;;;;5011505;28;20054;-69
2020/12/24 08:40:43;;;;;;;0.70;0.60;;;6.60;99.90;;;;;;5011434;28;20037;-69
2020/12/24 08:43:11;;;;;;;2.28;0.50;;;6.60;99.90;;;;;;5011123;28;20033;-69
2020/12/24 08:45:48;;;;;;;1.63;0.50;;;6.70;99.90;;;;;;5010185;28;20030;-70
2020/12/24 08:48:36;;;;;;;0.50;0.50;;;6.60;99.90;;;;;;5011556;28;20034;-69
2020/12/24 08:51:16;;;;;;;0.70;0.60;;;6.60;99.90;;;;;;5011904;28;20028;-70
2020/12/24 08:53:42;;;;;;;0.90;0.60;;;6.60;99.90;;;;;;5011296;28;20046;-70
2020/12/24 08:56:15;;;;;;;0.85;0.70;;;6.50;99.90;;;;;;5011104;28;20049;-71
2020/12/24 08:58:48;;;;;;;1.40;0.63;;;6.40;99.90;;;;;;5009897;28;20088;-72
2020/12/24 09:01:15;;;;;;;1.08;0.60;;;6.60;99.90;;;;;;5013748;28;20360;-79
2020/12/24 09:03:42;;;;;;;0.50;0.47;;;6.70;99.90;;;;;;5015055;28;20112;-76
2020/12/24 09:06:12;;;;;;;1.07;0.33;;;6.70;99.90;;;;;;5014668;28;20518;-77
2020/12/24 09:08:39;;;;;;;0.85;0.65;;;6.60;99.90;;;;;;5016256;28;20109;-70
2020/12/24 09:11:05;;;;;;;1.25;0.70;;;6.70;99.90;;;;;;5014723;28;20125;-77
2020/12/24 09:13:31;;;;;;;1.38;0.80;;;6.80;99.90;;;;;;5014061;28;20124;-76
2020/12/24 09:15:57;;;;;;;0.75;0.65;;;6.90;99.90;;;;;;5013289;28;20042;-74
2020/12/24 09:18:22;;;;;;;0.73;0.73;;;6.80;99.90;;;;;;5014480;28;20045;-72
2020/12/24 09:20:48;;;;;;;1.58;0.77;;;6.90;99.90;;;;;;5015533;28;20456;-69
2020/12/24 09:23:15;;;;;;;0.93;0.75;;;6.90;99.90;;;;;;5013156;28;20044;-73
2020/12/24 09:25:46;;;;;;;2.58;0.50;;;6.90;99.90;;;;;;5014157;28;20045;-73
2020/12/24 09:28:26;;;;;;;0.57;0.50;;;6.90;99.90;;;;;;5014136;28;20129;-72
2020/12/24 09:30:55;;;;;;;0.80;0.70;;;6.90;99.90;;;;;;5013901;28;20042;-73
2020/12/24 09:33:21;;;;;;;2.10;0.60;;;7.00;99.90;;;;;;5013976;28;20022;-71
2020/12/24 09:35:47;;;;;;;1.00;0.80;;;7.00;99.90;;;;;;5015063;28;20578;-71
2020/12/24 09:38:13;;;;;;;2.03;0.80;;;7.10;99.90;;;;;;5013135;28;20042;-70
2020/12/24 09:40:39;;;;;;;7.90;0.90;;;7.00;99.90;;;;;;5014111;28;20441;-69
2020/12/24 09:43:08;;;;;;;1.25;0.85;;;7.20;99.90;;;;;;5014084;28;20414;-71
2020/12/24 09:45:35;;;;;;;1.00;0.60;;;7.20;99.90;;;;;;5013898;28;20030;-70
2020/12/24 09:48:00;;;;;;;1.63;1.05;;;7.00;99.90;;;;;;5015454;28;20479;-70
2020/12/24 09:50:26;;;;;;;1.65;1.10;;;7.00;99.90;;;;;;5013990;28;20130;-69
2020/12/24 09:52:52;;;;;;;3.03;1.70;;;7.10;99.90;;;;;;5013857;28;20041;-69
2020/12/24 09:55:18;;;;;;;1.70;1.45;;;7.10;99.90;;;;;;5013853;28;20057;-68
2020/12/24 09:57:44;;;;;;;1.80;1.27;;;7.00;99.90;;;;;;5013753;28;20037;-68
2020/12/24 10:00:11;;;;;;;3.47;1.10;;;7.00;99.90;;;;;;5012615;28;20363;-67
2020/12/24 10:02:37;;;;;;;2.67;0.95;;;6.90;99.90;;;;;;5015412;28;20396;-70
2020/12/24 10:05:04;;;;;;;3.10;1.15;;;7.10;99.90;;;;;;5013461;28;20054;-69
2020/12/24 10:07:31;;;;;;;4.53;1.90;;;7.20;99.90;;;;;;5012918;28;20041;-69
2020/12/24 10:09:56;;;;;;;3.25;1.52;;;7.20;99.90;;;;;;5013448;28;20041;-68
2020/12/24 10:12:24;;;;;;;2.53;1.25;;;7.20;99.90;;;;;;5012562;28;20068;-70
2020/12/24 10:14:50;;;;;;;7.50;1.50;;;7.10;99.90;;;;;;5014870;28;20406;-69
2020/12/24 10:17:16;;;;;;;2.60;1.48;;;7.00;99.90;;;;;;5013332;28;20038;-70
2020/12/24 10:19:45;;;;;;;4.28;1.63;;;7.00;99.90;;;;;;5012601;28;20038;-68
2020/12/24 10:22:12;;;;;;;3.65;1.60;;;7.10;99.90;;;;;;5013376;28;20042;-71
2020/12/24 10:24:40;;;;;;;2.30;1.58;;;7.30;99.90;;;;;;5013283;28;20460;-73
2020/12/24 10:27:09;;;;;;;3.60;1.50;;;7.40;99.90;;;;;;5013244;28;20097;-70
2020/12/24 10:29:34;;;;;;;2.15;1.60;;;7.40;99.90;;;;;;5014679;28;20076;-70
2020/12/24 10:32:00;;;;;;;2.20;1.33;;;7.40;99.90;;;;;;5012872;28;20128;-72
2020/12/24 10:34:26;;;;;;;4.90;1.75;;;7.40;99.90;;;;;;5012886;28;20091;-71
2020/12/24 10:36:52;;;;;;;3.08;1.80;;;7.30;99.90;;;;;;5012013;28;20030;-71
2020/12/24 10:39:17;;;;;;;9.57;1.65;;;7.10;99.90;;;;;;5012965;28;20038;-69
2020/12/24 10:41:49;;;;;;;4.47;2.03;;;7.30;99.90;;;;;;5014449;28;20029;-71
2020/12/24 10:44:14;;;;;;;5.97;1.85;;;7.50;99.90;;;;;;5011805;28;20384;-71
2020/12/24 10:46:40;;;;;;;3.05;2.00;;;7.50;99.90;;;;;;5011356;28;20060;-72
2020/12/24 10:49:06;;;;;;;3.00;1.67;;;7.50;99.90;;;;;;5012485;28;20037;-71
2020/12/24 10:51:32;;;;;;;5.13;2.20;;;7.50;99.90;;;;;;5012631;28;20048;-71
2020/12/24 10:53:57;;;;;;;3.97;1.48;;;7.40;99.90;;;;;;5014263;28;20057;-72
2020/12/24 10:56:23;;;;;;;6.53;2.00;;;7.50;99.90;;;;;;5012570;28;20467;-72
2020/12/24 10:58:49;;;;;;;5.85;2.00;;;7.50;99.90;;;;;;5012538;28;20034;-72
2020/12/24 11:01:17;;;;;;;7.25;2.28;;;7.50;99.90;;;;;;5011316;28;20026;-78
2020/12/24 11:03:43;;;;;;;6.18;2.03;;;7.60;99.90;;;;;;5012524;28;20034;-71
2020/12/24 11:06:23;;;;;;;3.58;1.77;;;7.60;99.90;;;;;;5012121;28;20080;-72
2020/12/24 11:08:49;;;;;;;4.75;1.67;;;7.50;99.90;;;;;;5013856;28;20030;-70
2020/12/24 11:11:15;;;;;;;4.35;1.90;;;7.40;99.90;;;;;;5012218;28;20399;-71
2020/12/24 11:13:46;;;;;;;6.10;1.83;;;7.50;99.90;;;;;;4992041;28;20404;-70
2020/12/24 11:16:22;;;;;;;3.92;1.63;;;7.60;99.90;;;;;;4991838;28;20045;-72
2020/12/24 11:18:48;;;;;;;2.13;1.23;;;7.50;99.90;;;;;;4992367;28;20042;-70
2020/12/24 11:21:14;;;;;;;2.83;1.73;;;7.60;99.90;;;;;;4991327;28;20077;-72
2020/12/24 11:23:40;;;;;;;4.05;1.67;;;7.60;99.90;;;;;;4992286;28;20022;-71
2020/12/24 11:26:05;;;;;;;3.00;1.83;;;7.70;99.90;;;;;;4992400;28;20362;-72
2020/12/24 11:28:31;;;;;;;1.77;1.35;;;7.70;99.90;;;;;;4992384;28;20034;-72
2020/12/24 11:30:57;;;;;;;3.38;1.50;;;7.70;99.90;;;;;;4991338;28;20038;-70
2020/12/24 11:33:22;;;;;;;6.93;2.20;;;7.60;99.90;;;;;;4992631;28;20034;-69
2020/12/24 11:35:48;;;;;;;7.63;2.17;;;7.70;99.90;;;;;;4994030;28;20081;-68
2020/12/24 11:38:14;;;;;;;2.47;1.55;;;7.70;99.90;;;;;;4992618;28;20042;-69
2020/12/24 11:40:40;;;;;;;8.20;2.67;;;7.80;99.90;;;;;;4991374;28;20030;-69
2020/12/24 11:43:05;;;;;;;6.35;1.80;;;7.90;99.90;;;;;;4991272;28;20022;-68
2020/12/24 11:45:31;;;;;;;3.13;1.45;;;7.80;99.90;;;;;;4992396;28;20453;-69
2020/12/24 11:47:57;;;;;;;3.17;1.50;;;7.80;99.90;;;;;;4994070;28;20034;-68
2020/12/24 11:50:22;;;;;;;4.20;1.70;;;7.70;99.90;;;;;;4992238;28;20046;-68
2020/12/24 11:52:48;;;;;;;2.92;1.38;;;7.80;99.90;;;;;;4992146;28;20188;-68
2020/12/24 11:55:14;;;;;;;4.30;1.83;;;7.90;99.90;;;;;;4991976;28;20084;-68
2020/12/24 11:57:40;;;;;;;4.78;1.83;;;8.00;99.90;;;;;;4992198;28;20066;-68
2020/12/24 12:00:10;;;;;;;5.05;1.50;;;8.10;99.90;;;;;;4992366;28;20022;-68
2020/12/24 12:02:37;;;;;;;6.32;1.67;;;8.10;99.90;;;;;;4993744;28;20022;-69
2020/12/24 12:05:04;;;;;;;4.45;1.60;;;8.00;99.90;;;;;;5000533;28;20096;-65
2020/12/24 12:07:30;;;;;;;7.18;3.78;;;7.80;99.90;;;;;;5011724;28;20456;-66
2020/12/24 12:09:55;;;;;;;4.63;1.80;;;7.70;99.90;;;;;;5011633;28;20042;-68
2020/12/24 12:12:21;;;;;;;2.92;1.90;;;7.70;99.90;;;;;;5011144;28;20022;-68
2020/12/24 12:14:46;;;;;;;5.13;2.65;;;7.80;99.90;;;;;;5013502;28;20065;-67
2020/12/24 12:17:14;;;;;;;6.25;2.85;;;7.60;99.90;;;;;;5011470;28;20121;-76
2020/12/24 12:19:40;;;;;;;7.30;3.65;;;7.70;99.90;;;;;;5010686;28;20046;-66
2020/12/24 12:22:06;;;;;;;5.70;3.45;;;7.50;99.90;;;;;;5011727;28;20029;-69
2020/12/24 12:24:32;;;;;;;9.40;3.85;;;7.60;99.90;;;;;;5011610;28;20030;-68
2020/12/24 12:26:58;;;;;;;6.88;3.63;;;7.60;99.90;;;;;;5013009;28;20030;-67
2020/12/24 12:29:24;;;;;;;11.32;4.90;;;7.80;99.90;;;;;;5011582;28;20034;-69
2020/12/24 12:31:50;;;;;;;6.43;4.22;;;7.70;99.90;;;;;;5011672;28;20048;-67
2020/12/24 12:34:15;;;;;;;7.78;3.92;;;7.80;99.90;;;;;;5011744;28;20456;-68
2020/12/24 12:36:41;;;;;;;5.70;4.18;;;8.00;99.90;;;;;;5014865;28;20072;-71
2020/12/24 12:39:07;;;;;;;6.97;4.45;;;7.80;99.90;;;;;;5014698;28;20033;-72
2020/12/24 12:41:32;;;;;;;8.65;5.18;;;7.80;99.90;;;;;;5016805;28;20022;-74
2020/12/24 12:43:58;;;;;;;14.73;5.10;;;7.80;99.90;;;;;;5016212;28;20380;-79
2020/12/24 12:46:28;;;;;;;8.80;5.13;;;7.80;99.90;;;;;;5015522;28;20462;-72
2020/12/24 12:48:55;;;;;;;7.95;4.97;;;7.80;99.90;;;;;;5015128;28;20030;-71
2020/12/24 12:51:21;;;;;;;10.05;5.22;;;7.80;99.90;;;;;;5014995;28;20519;-70
2020/12/24 12:53:46;;;;;;;15.57;5.82;;;7.90;99.90;;;;;;5015630;28;20258;-72
2020/12/24 12:56:13;;;;;;;10.13;5.95;;;7.80;99.90;;;;;;5013978;28;20060;-71